sensor_id;sensor_type;location;lat;lon;timestamp;temperature;humidity
15690;DHT22;7945;48.816;11.506;2023-03-03T00:00:03;7.10;99.90
15690;DHT22;7945;48.816;11.506;2023-03-03T00:02:32;7.00;99.90
15690;DHT22;7945;48.816;11.506;2023-03-03T00:04:58;7.00;99.90
15690;DHT22;7945;48.816;11.506;2023-03-03T00:07:25;7.00;99.90
15690;DHT22;7945;48.816;11.506;2023-03-03T00:09:52;6.90;99.90
15690;DHT22;7945;48.816;11.506;2023-03-03T00:12:22;6.90;99.90
15690;DHT22;7945;48.816;11.506;2023-03-03T00:14:49;6.80;99.90
15690;DHT22;7945;48.816;11.506;2023-03-03T00:17:21;6.70;99.90
15690;DHT22;7945;48.816;11.506;2023-03-03T00:19:50;6.70;99.90
15690;DHT22;7945;48.816;11.506;2023-03-03T00:22:25;6.70;99.90
15690;DHT22;7945;48.816;11.506;2023-03-03T00:24:54;6.70;99.90
15690;DHT22;7945;48.816;11.506;2023-03-03T00:27:26;6.70;99.90
15690;DHT22;7945;48.816;11.506;2023-03-03T00:29:55;6.60;99.90
15690;DHT22;7945;48.816;11.506;2023-03-03T00:32:24;6.60;99.90
15690;DHT22;7945;48.816;11.506;2023-03-03T00:34:54;6.60;99.90
15690;DHT22;7945;48.816;11.506;2023-03-03T00:37:30;6.50;99.90
15690;DHT22;7945;48.816;11.506;2023-03-03T00:40:18;6.50;99.90
15690;DHT22;7945;48.816;11.506;2023-03-03T00:42:49;6.80;99.90
15690;DHT22;7945;48.816;11.506;2023-03-03T00:45:23;6.40;99.90
15690;DHT22;7945;48.816;11.506;2023-03-03T00:47:51;6.30;99.90
15690;DHT22;7945;48.816;11.506;2023-03-03T00:50:28;6.30;99.90
15690;DHT22;7945;48.816;11.506;2023-03-03T00:53:04;6.20;99.90
15690;DHT22;7945;48.816;11.506;2023-03-03T00:55:33;6.10;99.90
15690;DHT22;7945;48.816;11.506;2023-03-03T00:58:00;6.10;99.90
15690;DHT22;7945;48.816;11.506;2023-03-03T01:00:27;6.10;99.90
15690;DHT22;7945;48.816;11.506;2023-03-03T01:02:53;6.00;99.90
15690;DHT22;7945;48.816;11.506;2023-03-03T01:05:21;5.90;99.90
15690;DHT22;7945;48.816;11.506;2023-03-03T01:07:49;5.80;99.90
15690;DHT22;7945;48.816;11.506;2023-03-03T01:10:16;5.80;99.90
15690;DHT22;7945;48.816;11.506;2023-03-03T01:12:43;5.80;99.90
15690;DHT22;7945;48.816;11.506;2023-03-03T01:15:11;5.70;99.90
15690;DHT22;7945;48.816;11.506;2023-03-03T01:17:38;5.70;99.90
15690;DHT22;7945;48.816;11.506;2023-03-03T01:20:12;5.60;99.90
15690;DHT22;7945;48.816;11.506;2023-03-03T01:22:40;5.60;99.90
15690;DHT22;7945;48.816;11.506;2023-03-03T01:25:09;5.50;99.90
15690;DHT22;7945;48.816;11.506;2023-03-03T01:27:36;5.50;99.90
15690;DHT22;7945;48.816;11.506;2023-03-03T01:30:03;5.50;99.90
15690;DHT22;7945;48.816;11.506;2023-03-03T01:32:30;5.40;99.90
15690;DHT22;7945;48.816;11.506;2023-03-03T01:34:57;5.40;99.90
15690;DHT22;7945;48.816;11.506;2023-03-03T01:37:24;5.30;99.90
15690;DHT22;7945;48.816;11.506;2023-03-03T01:39:51;5.30;99.90
15690;DHT22;7945;48.816;11.506;2023-03-03T01:42:20;5.30;99.90
15690;DHT22;7945;48.816;11.506;2023-03-03T01:44:47;5.20;99.90
15690;DHT22;7945;48.816;11.506;2023-03-03T01:47:16;5.20;99.90
15690;DHT22;7945;48.816;11.506;2023-03-03T01:49:48;5.20;99.90
15690;DHT22;7945;48.816;11.506;2023-03-03T01:52:23;5.20;99.90
15690;DHT22;7945;48.816;11.506;2023-03-03T01:54:54;5.10;99.90
15690;DHT22;7945;48.816;11.506;2023-03-03T01:57:26;5.00;99.90
15690;DHT22;7945;48.816;11.506;2023-03-03T01:59:56;5.00;99.90
15690;DHT22;7945;48.816;11.506;2023-03-03T02:02:24;5.00;99.90
15690;DHT22;7945;48.816;11.506;2023-03-03T02:04:53;5.00;99.90
15690;DHT22;7945;48.816;11.506;2023-03-03T02:07:22;5.00;99.90
15690;DHT22;7945;48.816;11.506;2023-03-03T02:09:55;4.90;99.90
15690;DHT22;7945;48.816;11.506;2023-03-03T02:12:31;4.90;99.90
15690;DHT22;7945;48.816;11.506;2023-03-03T02:14:58;4.80;99.90
15690;DHT22;7945;48.816;11.506;2023-03-03T02:17:25;4.80;99.90
15690;DHT22;7945;48.816;11.506;2023-03-03T02:19:58;4.70;99.90
15690;DHT22;7945;48.816;11.506;2023-03-03T02:22:32;4.70;99.90
15690;DHT22;7945;48.816;11.506;2023-03-03T02:25:02;4.70;99.90
15690;DHT22;7945;48.816;11.506;2023-03-03T02:27:32;4.60;99.90
15690;DHT22;7945;48.816;11.506;2023-03-03T02:30:08;4.60;99.90
15690;DHT22;7945;48.816;11.506;2023-03-03T02:32:36;4.60;99.90
15690;DHT22;7945;48.816;11.506;2023-03-03T02:35:24;4.60;99.90
15690;DHT22;7945;48.816;11.506;2023-03-03T02:37:52;4.50;99.90
15690;DHT22;7945;48.816;11.506;2023-03-03T02:40:23;4.50;99.90
15690;DHT22;7945;48.816;11.506;2023-03-03T02:42:55;4.50;99.90
15690;DHT22;7945;48.816;11.506;2023-03-03T02:45:23;4.50;99.90
15690;DHT22;7945;48.816;11.506;2023-03-03T02:47:50;4.50;99.90
15690;DHT22;7945;48.816;11.506;2023-03-03T02:50:16;4.40;99.90
15690;DHT22;7945;48.816;11.506;2023-03-03T02:52:43;4.50;99.90
15690;DHT22;7945;48.816;11.506;2023-03-03T02:55:10;4.50;99.90
15690;DHT22;7945;48.816;11.506;2023-03-03T02:57:37;4.50;99.90
15690;DHT22;7945;48.816;11.506;2023-03-03T03:00:06;4.50;99.90
15690;DHT22;7945;48.816;11.506;2023-03-03T03:02:33;4.50;99.90
15690;DHT22;7945;48.816;11.506;2023-03-03T03:05:00;4.60;99.90
15690;DHT22;7945;48.816;11.506;2023-03-03T03:07:26;4.60;99.90
15690;DHT22;7945;48.816;11.506;2023-03-03T03:09:53;4.70;99.90
15690;DHT22;7945;48.816;11.506;2023-03-03T03:12:20;4.60;99.90
15690;DHT22;7945;48.816;11.506;2023-03-03T03:14:47;4.70;99.90
15690;DHT22;7945;48.816;11.506;2023-03-03T03:17:15;4.70;99.90
15690;DHT22;7945;48.816;11.506;2023-03-03T03:19:42;4.70;99.90
15690;DHT22;7945;48.816;11.506;2023-03-03T03:22:09;4.80;99.90
15690;DHT22;7945;48.816;11.506;2023-03-03T03:24:35;4.70;99.90
15690;DHT22;7945;48.816;11.506;2023-03-03T03:27:02;4.80;99.90
15690;DHT22;7945;48.816;11.506;2023-03-03T03:29:29;4.80;99.90
15690;DHT22;7945;48.816;11.506;2023-03-03T03:31:56;4.80;99.90
15690;DHT22;7945;48.816;11.506;2023-03-03T03:34:24;4.90;99.90
15690;DHT22;7945;48.816;11.506;2023-03-03T03:36:50;4.80;99.90
15690;DHT22;7945;48.816;11.506;2023-03-03T03:39:17;4.80;99.90
15690;DHT22;7945;48.816;11.506;2023-03-03T03:41:44;4.80;99.90
15690;DHT22;7945;48.816;11.506;2023-03-03T03:44:10;4.80;99.90
15690;DHT22;7945;48.816;11.506;2023-03-03T03:46:37;4.80;99.90
15690;DHT22;7945;48.816;11.506;2023-03-03T03:49:04;4.80;99.90
15690;DHT22;7945;48.816;11.506;2023-03-03T03:51:32;4.70;99.90
15690;DHT22;7945;48.816;11.506;2023-03-03T03:54:02;4.70;99.90
15690;DHT22;7945;48.816;11.506;2023-03-03T03:56:29;4.70;99.90
15690;DHT22;7945;48.816;11.506;2023-03-03T03:58:56;4.80;99.90
15690;DHT22;7945;48.816;11.506;2023-03-03T04:01:22;4.80;99.90
15690;DHT22;7945;48.816;11.506;2023-03-03T04:03:49;4.80;99.90
15690;DHT22;7945;48.816;11.506;2023-03-03T04:06:16;4.80;99.90
15690;DHT22;7945;48.816;11.506;2023-03-03T04:08:45;4.80;99.90
15690;DHT22;7945;48.816;11.506;2023-03-03T04:11:11;4.90;99.90
15690;DHT22;7945;48.816;11.506;2023-03-03T04:13:38;4.90;99.90
15690;DHT22;7945;48.816;11.506;2023-03-03T04:16:05;4.90;99.90
15690;DHT22;7945;48.816;11.506;2023-03-03T04:18:32;5.00;99.90
15690;DHT22;7945;48.816;11.506;2023-03-03T04:20:58;5.00;99.90
15690;DHT22;7945;48.816;11.506;2023-03-03T04:23:25;4.90;99.90
15690;DHT22;7945;48.816;11.506;2023-03-03T04:25:53;4.90;99.90
15690;DHT22;7945;48.816;11.506;2023-03-03T04:28:20;4.90;99.90
15690;DHT22;7945;48.816;11.506;2023-03-03T04:30:49;4.90;99.90
15690;DHT22;7945;48.816;11.506;2023-03-03T04:33:16;4.90;99.90
15690;DHT22;7945;48.816;11.506;2023-03-03T04:35:43;4.90;99.90
15690;DHT22;7945;48.816;11.506;2023-03-03T04:38:09;5.00;99.90
15690;DHT22;7945;48.816;11.506;2023-03-03T04:40:38;5.00;99.90
15690;DHT22;7945;48.816;11.506;2023-03-03T04:43:06;5.00;99.90
15690;DHT22;7945;48.816;11.506;2023-03-03T04:45:33;5.00;99.90
15690;DHT22;7945;48.816;11.506;2023-03-03T04:48:00;5.00;99.90
15690;DHT22;7945;48.816;11.506;2023-03-03T04:50:27;5.00;99.90
15690;DHT22;7945;48.816;11.506;2023-03-03T04:52:53;5.00;99.90
15690;DHT22;7945;48.816;11.506;2023-03-03T04:55:20;5.00;99.90
15690;DHT22;7945;48.816;11.506;2023-03-03T04:57:47;5.00;99.90
15690;DHT22;7945;48.816;11.506;2023-03-03T05:00:16;5.00;99.90
15690;DHT22;7945;48.816;11.506;2023-03-03T05:02:43;5.00;99.90
15690;DHT22;7945;48.816;11.506;2023-03-03T05:05:10;5.00;99.90
15690;DHT22;7945;48.816;11.506;2023-03-03T05:07:38;5.00;99.90
15690;DHT22;7945;48.816;11.506;2023-03-03T05:10:05;4.90;99.90
15690;DHT22;7945;48.816;11.506;2023-03-03T05:12:32;4.90;99.90
15690;DHT22;7945;48.816;11.506;2023-03-03T05:14:59;4.90;99.90
15690;DHT22;7945;48.816;11.506;2023-03-03T05:17:27;4.90;99.90
15690;DHT22;7945;48.816;11.506;2023-03-03T05:19:54;4.90;99.90
15690;DHT22;7945;48.816;11.506;2023-03-03T05:22:22;5.00;99.90
15690;DHT22;7945;48.816;11.506;2023-03-03T05:24:48;5.00;99.90
15690;DHT22;7945;48.816;11.506;2023-03-03T05:27:16;5.00;99.90
15690;DHT22;7945;48.816;11.506;2023-03-03T05:29:42;4.90;99.90
15690;DHT22;7945;48.816;11.506;2023-03-03T05:32:09;4.90;99.90
15690;DHT22;7945;48.816;11.506;2023-03-03T05:34:37;4.80;99.90
15690;DHT22;7945;48.816;11.506;2023-03-03T05:37:04;4.90;99.90
15690;DHT22;7945;48.816;11.506;2023-03-03T05:39:31;4.80;99.90
15690;DHT22;7945;48.816;11.506;2023-03-03T05:41:58;4.80;99.90
15690;DHT22;7945;48.816;11.506;2023-03-03T05:44:25;4.80;99.90
15690;DHT22;7945;48.816;11.506;2023-03-03T05:46:52;4.80;99.90
15690;DHT22;7945;48.816;11.506;2023-03-03T05:49:21;4.80;99.90
15690;DHT22;7945;48.816;11.506;2023-03-03T05:51:49;4.80;99.90
15690;DHT22;7945;48.816;11.506;2023-03-03T05:54:15;4.80;99.90
15690;DHT22;7945;48.816;11.506;2023-03-03T05:56:42;4.80;99.90
15690;DHT22;7945;48.816;11.506;2023-03-03T05:59:09;4.80;99.90
15690;DHT22;7945;48.816;11.506;2023-03-03T06:01:35;4.70;99.90
15690;DHT22;7945;48.816;11.506;2023-03-03T06:04:02;4.70;99.90
15690;DHT22;7945;48.816;11.506;2023-03-03T06:06:29;4.80;99.90
15690;DHT22;7945;48.816;11.506;2023-03-03T06:08:57;4.80;99.90
15690;DHT22;7945;48.816;11.506;2023-03-03T06:11:24;4.80;99.90
15690;DHT22;7945;48.816;11.506;2023-03-03T06:15:17;4.80;99.90
15690;DHT22;7945;48.816;11.506;2023-03-03T06:17:44;4.80;99.90
15690;DHT22;7945;48.816;11.506;2023-03-03T06:20:11;4.80;99.90
15690;DHT22;7945;48.816;11.506;2023-03-03T06:22:38;4.80;99.90
15690;DHT22;7945;48.816;11.506;2023-03-03T06:25:05;4.90;99.90
15690;DHT22;7945;48.816;11.506;2023-03-03T06:27:32;4.80;99.90
15690;DHT22;7945;48.816;11.506;2023-03-03T06:29:59;4.80;99.90
15690;DHT22;7945;48.816;11.506;2023-03-03T06:32:27;4.80;99.90
15690;DHT22;7945;48.816;11.506;2023-03-03T06:34:54;4.80;99.90
15690;DHT22;7945;48.816;11.506;2023-03-03T06:37:21;4.90;99.90
15690;DHT22;7945;48.816;11.506;2023-03-03T06:39:47;5.10;99.90
15690;DHT22;7945;48.816;11.506;2023-03-03T06:42:16;5.20;99.90
15690;DHT22;7945;48.816;11.506;2023-03-03T06:44:43;5.50;99.90
15690;DHT22;7945;48.816;11.506;2023-03-03T06:47:10;5.50;99.90
15690;DHT22;7945;48.816;11.506;2023-03-03T06:49:38;5.60;99.90
15690;DHT22;7945;48.816;11.506;2023-03-03T06:52:11;5.50;99.90
15690;DHT22;7945;48.816;11.506;2023-03-03T06:54:39;5.50;99.90
15690;DHT22;7945;48.816;11.506;2023-03-03T06:57:15;5.40;99.90
15690;DHT22;7945;48.816;11.506;2023-03-03T06:59:42;5.40;99.90
15690;DHT22;7945;48.816;11.506;2023-03-03T07:02:13;5.40;99.90
15690;DHT22;7945;48.816;11.506;2023-03-03T07:04:43;5.50;99.90
15690;DHT22;7945;48.816;11.506;2023-03-03T07:07:15;5.50;99.90
15690;DHT22;7945;48.816;11.506;2023-03-03T07:09:43;5.60;99.90
15690;DHT22;7945;48.816;11.506;2023-03-03T07:12:14;5.70;99.90
15690;DHT22;7945;48.816;11.506;2023-03-03T07:14:43;5.80;99.90
15690;DHT22;7945;48.816;11.506;2023-03-03T07:17:15;5.90;99.90
15690;DHT22;7945;48.816;11.506;2023-03-03T07:19:44;6.00;99.90
15690;DHT22;7945;48.816;11.506;2023-03-03T07:22:15;6.00;99.90
15690;DHT22;7945;48.816;11.506;2023-03-03T07:24:43;6.00;99.90
15690;DHT22;7945;48.816;11.506;2023-03-03T07:27:13;6.00;99.90
15690;DHT22;7945;48.816;11.506;2023-03-03T07:29:44;6.00;99.90
15690;DHT22;7945;48.816;11.506;2023-03-03T07:32:22;6.00;99.90
15690;DHT22;7945;48.816;11.506;2023-03-03T07:34:53;6.00;99.90
15690;DHT22;7945;48.816;11.506;2023-03-03T07:37:28;6.10;99.90
15690;DHT22;7945;48.816;11.506;2023-03-03T07:39:56;6.10;99.90
15690;DHT22;7945;48.816;11.506;2023-03-03T07:42:24;6.10;99.90
15690;DHT22;7945;48.816;11.506;2023-03-03T07:44:54;6.20;99.90
15690;DHT22;7945;48.816;11.506;2023-03-03T07:47:23;6.30;99.90
15690;DHT22;7945;48.816;11.506;2023-03-03T07:49:54;6.30;99.90
15690;DHT22;7945;48.816;11.506;2023-03-03T07:52:25;6.30;99.90
15690;DHT22;7945;48.816;11.506;2023-03-03T07:54:54;6.40;99.90
15690;DHT22;7945;48.816;11.506;2023-03-03T07:57:24;6.50;99.80
15690;DHT22;7945;48.816;11.506;2023-03-03T07:59:52;6.50;99.20
15690;DHT22;7945;48.816;11.506;2023-03-03T08:02:38;6.60;98.70
15690;DHT22;7945;48.816;11.506;2023-03-03T08:05:29;6.70;98.90
15690;DHT22;7945;48.816;11.506;2023-03-03T08:08:16;6.80;98.00
15690;DHT22;7945;48.816;11.506;2023-03-03T08:10:46;6.80;98.10
15690;DHT22;7945;48.816;11.506;2023-03-03T08:13:17;6.80;98.50
15690;DHT22;7945;48.816;11.506;2023-03-03T08:15:45;6.80;98.60
15690;DHT22;7945;48.816;11.506;2023-03-03T08:18:22;6.80;97.50
15690;DHT22;7945;48.816;11.506;2023-03-03T08:20:52;6.80;97.30
15690;DHT22;7945;48.816;11.506;2023-03-03T08:23:20;6.80;97.20
15690;DHT22;7945;48.816;11.506;2023-03-03T08:25:48;6.90;97.30
15690;DHT22;7945;48.816;11.506;2023-03-03T08:28:16;6.90;97.70
15690;DHT22;7945;48.816;11.506;2023-03-03T08:30:44;6.90;97.60
15690;DHT22;7945;48.816;11.506;2023-03-03T08:33:12;7.00;97.70
15690;DHT22;7945;48.816;11.506;2023-03-03T08:35:39;7.00;97.70
15690;DHT22;7945;48.816;11.506;2023-03-03T08:38:07;7.00;97.90
15690;DHT22;7945;48.816;11.506;2023-03-03T08:40:35;7.00;98.00
15690;DHT22;7945;48.816;11.506;2023-03-03T08:43:02;6.90;98.10
15690;DHT22;7945;48.816;11.506;2023-03-03T08:45:30;7.00;98.00
15690;DHT22;7945;48.816;11.506;2023-03-03T08:47:57;7.00;98.10
15690;DHT22;7945;48.816;11.506;2023-03-03T08:50:25;7.10;97.20
15690;DHT22;7945;48.816;11.506;2023-03-03T08:52:52;7.10;97.30
15690;DHT22;7945;48.816;11.506;2023-03-03T08:55:20;7.20;96.90
15690;DHT22;7945;48.816;11.506;2023-03-03T08:57:46;7.20;96.90
15690;DHT22;7945;48.816;11.506;2023-03-03T09:00:16;7.30;96.90
15690;DHT22;7945;48.816;11.506;2023-03-03T09:02:43;7.40;96.60
15690;DHT22;7945;48.816;11.506;2023-03-03T09:05:10;7.40;96.60
15690;DHT22;7945;48.816;11.506;2023-03-03T09:07:38;7.50;96.50
15690;DHT22;7945;48.816;11.506;2023-03-03T09:10:06;7.70;96.20
15690;DHT22;7945;48.816;11.506;2023-03-03T09:12:37;7.90;95.80
15690;DHT22;7945;48.816;11.506;2023-03-03T09:15:17;7.90;95.40
15690;DHT22;7945;48.816;11.506;2023-03-03T09:17:44;8.10;95.20
15690;DHT22;7945;48.816;11.506;2023-03-03T09:20:27;8.30;95.30
15690;DHT22;7945;48.816;11.506;2023-03-03T09:22:55;8.60;94.80
15690;DHT22;7945;48.816;11.506;2023-03-03T09:25:27;8.80;94.20
15690;DHT22;7945;48.816;11.506;2023-03-03T09:27:57;8.90;93.70
15690;DHT22;7945;48.816;11.506;2023-03-03T09:30:37;9.10;93.70
15690;DHT22;7945;48.816;11.506;2023-03-03T09:33:25;9.20;92.70
15690;DHT22;7945;48.816;11.506;2023-03-03T09:35:53;9.00;92.60
15690;DHT22;7945;48.816;11.506;2023-03-03T09:38:26;8.90;93.00
15690;DHT22;7945;48.816;11.506;2023-03-03T09:41:05;8.90;92.90
15690;DHT22;7945;48.816;11.506;2023-03-03T09:43:42;8.90;92.90
15690;DHT22;7945;48.816;11.506;2023-03-03T09:46:17;9.00;92.90
15690;DHT22;7945;48.816;11.506;2023-03-03T09:48:53;9.10;92.50
15690;DHT22;7945;48.816;11.506;2023-03-03T09:51:39;9.30;92.30
15690;DHT22;7945;48.816;11.506;2023-03-03T09:54:15;9.50;92.10
15690;DHT22;7945;48.816;11.506;2023-03-03T09:56:49;9.50;91.90
15690;DHT22;7945;48.816;11.506;2023-03-03T09:59:32;9.60;91.40
15690;DHT22;7945;48.816;11.506;2023-03-03T10:02:19;9.60;91.50
15690;DHT22;7945;48.816;11.506;2023-03-03T10:04:56;9.60;91.50
15690;DHT22;7945;48.816;11.506;2023-03-03T10:07:34;9.50;91.60
15690;DHT22;7945;48.816;11.506;2023-03-03T10:13:14;9.90;91.30
15690;DHT22;7945;48.816;11.506;2023-03-03T11:41:05;10.80;90.00
15690;DHT22;7945;48.816;11.506;2023-03-03T11:43:38;10.90;90.40
15690;DHT22;7945;48.816;11.506;2023-03-03T11:46:08;11.00;90.30
15690;DHT22;7945;48.816;11.506;2023-03-03T11:48:43;11.10;88.80
15690;DHT22;7945;48.816;11.506;2023-03-03T11:51:16;11.20;89.60
15690;DHT22;7945;48.816;11.506;2023-03-03T11:53:56;11.10;88.60
15690;DHT22;7945;48.816;11.506;2023-03-03T11:56:27;11.00;88.40
15690;DHT22;7945;48.816;11.506;2023-03-03T11:59:06;10.90;89.60
15690;DHT22;7945;48.816;11.506;2023-03-03T12:01:43;11.00;90.10
15690;DHT22;7945;48.816;11.506;2023-03-03T12:04:13;11.20;89.10
15690;DHT22;7945;48.816;11.506;2023-03-03T12:06:53;11.30;89.60
15690;DHT22;7945;48.816;11.506;2023-03-03T12:09:35;11.40;88.40
15690;DHT22;7945;48.816;11.506;2023-03-03T12:12:07;11.40;88.60
15690;DHT22;7945;48.816;11.506;2023-03-03T12:14:49;11.40;89.10
15690;DHT22;7945;48.816;11.506;2023-03-03T12:17:28;11.50;89.70
15690;DHT22;7945;48.816;11.506;2023-03-03T12:20:04;11.60;88.80
15690;DHT22;7945;48.816;11.506;2023-03-03T12:22:39;11.80;87.90
15690;DHT22;7945;48.816;11.506;2023-03-03T12:25:21;11.90;87.90
15690;DHT22;7945;48.816;11.506;2023-03-03T12:27:54;12.00;87.80
15690;DHT22;7945;48.816;11.506;2023-03-03T12:30:40;12.10;87.30
15690;DHT22;7945;48.816;11.506;2023-03-03T12:33:17;12.10;87.10
15690;DHT22;7945;48.816;11.506;2023-03-03T12:35:53;12.00;87.60
15690;DHT22;7945;48.816;11.506;2023-03-03T12:38:31;12.00;87.00
15690;DHT22;7945;48.816;11.506;2023-03-03T12:41:04;12.20;86.80
15690;DHT22;7945;48.816;11.506;2023-03-03T12:43:55;12.10;85.70
15690;DHT22;7945;48.816;11.506;2023-03-03T12:46:31;12.30;86.80
15690;DHT22;7945;48.816;11.506;2023-03-03T12:49:00;12.20;85.50
15690;DHT22;7945;48.816;11.506;2023-03-03T12:51:35;12.10;86.10
15690;DHT22;7945;48.816;11.506;2023-03-03T12:54:35;12.00;85.90
15690;DHT22;7945;48.816;11.506;2023-03-03T12:57:12;12.10;86.40
15690;DHT22;7945;48.816;11.506;2023-03-03T12:59:49;12.10;86.50
15690;DHT22;7945;48.816;11.506;2023-03-03T13:02:35;12.10;86.10
15690;DHT22;7945;48.816;11.506;2023-03-03T13:05:14;12.20;86.20
15690;DHT22;7945;48.816;11.506;2023-03-03T13:07:49;12.30;85.90
15690;DHT22;7945;48.816;11.506;2023-03-03T13:10:20;12.40;85.60
15690;DHT22;7945;48.816;11.506;2023-03-03T13:12:52;12.50;85.20
15690;DHT22;7945;48.816;11.506;2023-03-03T13:15:26;12.50;85.60
15690;DHT22;7945;48.816;11.506;2023-03-03T13:18:05;12.50;84.90
15690;DHT22;7945;48.816;11.506;2023-03-03T13:20:42;12.50;84.90
15690;DHT22;7945;48.816;11.506;2023-03-03T13:23:16;12.40;85.80
15690;DHT22;7945;48.816;11.506;2023-03-03T13:25:52;12.40;85.50
15690;DHT22;7945;48.816;11.506;2023-03-03T13:28:36;12.40;85.70
15690;DHT22;7945;48.816;11.506;2023-03-03T13:31:13;12.60;85.40
15690;DHT22;7945;48.816;11.506;2023-03-03T13:33:45;12.50;84.80
15690;DHT22;7945;48.816;11.506;2023-03-03T13:36:16;12.40;84.80
15690;DHT22;7945;48.816;11.506;2023-03-03T13:38:47;12.40;86.90
15690;DHT22;7945;48.816;11.506;2023-03-03T13:41:21;12.30;85.50
15690;DHT22;7945;48.816;11.506;2023-03-03T13:43:53;12.40;85.80
15690;DHT22;7945;48.816;11.506;2023-03-03T13:46:33;12.40;85.70
15690;DHT22;7945;48.816;11.506;2023-03-03T13:49:33;12.40;86.70
15690;DHT22;7945;48.816;11.506;2023-03-03T13:52:06;12.50;85.90
15690;DHT22;7945;48.816;11.506;2023-03-03T13:54:50;12.50;84.80
15690;DHT22;7945;48.816;11.506;2023-03-03T13:57:25;12.50;84.70
15690;DHT22;7945;48.816;11.506;2023-03-03T14:00:04;12.40;85.90
15690;DHT22;7945;48.816;11.506;2023-03-03T14:05:35;12.40;84.70
15690;DHT22;7945;48.816;11.506;2023-03-03T14:08:08;12.40;85.10
15690;DHT22;7945;48.816;11.506;2023-03-03T14:10:42;12.40;84.70
15690;DHT22;7945;48.816;11.506;2023-03-03T14:13:17;12.50;84.20
15690;DHT22;7945;48.816;11.506;2023-03-03T14:15:51;12.50;84.70
15690;DHT22;7945;48.816;11.506;2023-03-03T14:18:30;12.60;84.50
15690;DHT22;7945;48.816;11.506;2023-03-03T14:21:04;12.60;85.00
15690;DHT22;7945;48.816;11.506;2023-03-03T14:23:45;12.50;84.50
15690;DHT22;7945;48.816;11.506;2023-03-03T14:26:13;12.50;83.50
15690;DHT22;7945;48.816;11.506;2023-03-03T14:28:41;12.50;83.90
15690;DHT22;7945;48.816;11.506;2023-03-03T14:31:19;12.50;83.70
15690;DHT22;7945;48.816;11.506;2023-03-03T14:33:59;12.50;83.90
15690;DHT22;7945;48.816;11.506;2023-03-03T14:36:28;12.50;82.70
15690;DHT22;7945;48.816;11.506;2023-03-03T14:38:56;12.40;82.70
15690;DHT22;7945;48.816;11.506;2023-03-03T14:41:35;12.40;84.00
15690;DHT22;7945;48.816;11.506;2023-03-03T14:44:26;12.30;85.10
15690;DHT22;7945;48.816;11.506;2023-03-03T14:47:21;12.30;86.40
15690;DHT22;7945;48.816;11.506;2023-03-03T14:49:50;12.20;85.80
15690;DHT22;7945;48.816;11.506;2023-03-03T14:52:22;12.00;87.20
15690;DHT22;7945;48.816;11.506;2023-03-03T14:54:51;12.00;85.80
15690;DHT22;7945;48.816;11.506;2023-03-03T14:57:20;12.10;86.60
15690;DHT22;7945;48.816;11.506;2023-03-03T14:59:59;12.10;85.40
15690;DHT22;7945;48.816;11.506;2023-03-03T15:02:37;12.10;85.10
15690;DHT22;7945;48.816;11.506;2023-03-03T15:05:21;12.20;85.50
15690;DHT22;7945;48.816;11.506;2023-03-03T15:07:51;12.20;84.50
15690;DHT22;7945;48.816;11.506;2023-03-03T15:10:28;12.20;84.70
15690;DHT22;7945;48.816;11.506;2023-03-03T15:12:55;12.20;84.10
15690;DHT22;7945;48.816;11.506;2023-03-03T15:15:23;12.20;83.80
15690;DHT22;7945;48.816;11.506;2023-03-03T15:17:57;12.20;84.00
15690;DHT22;7945;48.816;11.506;2023-03-03T15:20:43;12.20;84.10
15690;DHT22;7945;48.816;11.506;2023-03-03T15:23:27;12.20;83.80
15690;DHT22;7945;48.816;11.506;2023-03-03T15:25:58;12.20;83.60
15690;DHT22;7945;48.816;11.506;2023-03-03T15:28:36;12.20;84.40
15690;DHT22;7945;48.816;11.506;2023-03-03T15:31:13;12.10;84.00
15690;DHT22;7945;48.816;11.506;2023-03-03T15:33:46;12.20;84.20
15690;DHT22;7945;48.816;11.506;2023-03-03T15:36:26;12.20;84.00
15690;DHT22;7945;48.816;11.506;2023-03-03T15:39:02;12.10;83.60
15690;DHT22;7945;48.816;11.506;2023-03-03T15:41:39;12.00;83.40
15690;DHT22;7945;48.816;11.506;2023-03-03T15:44:15;12.00;83.80
15690;DHT22;7945;48.816;11.506;2023-03-03T15:46:54;12.00;83.50
15690;DHT22;7945;48.816;11.506;2023-03-03T15:49:46;12.00;83.20
15690;DHT22;7945;48.816;11.506;2023-03-03T15:52:32;11.90;83.30
15690;DHT22;7945;48.816;11.506;2023-03-03T15:55:11;11.90;83.80
15690;DHT22;7945;48.816;11.506;2023-03-03T15:57:50;11.90;83.10
15690;DHT22;7945;48.816;11.506;2023-03-03T16:00:34;11.90;83.70
15690;DHT22;7945;48.816;11.506;2023-03-03T16:03:10;11.80;83.90
15690;DHT22;7945;48.816;11.506;2023-03-03T16:05:45;11.80;84.20
15690;DHT22;7945;48.816;11.506;2023-03-03T16:08:18;11.80;84.30
15690;DHT22;7945;48.816;11.506;2023-03-03T16:10:57;11.70;84.90
15690;DHT22;7945;48.816;11.506;2023-03-03T16:13:36;11.60;85.10
15690;DHT22;7945;48.816;11.506;2023-03-03T16:16:15;11.60;85.60
15690;DHT22;7945;48.816;11.506;2023-03-03T16:18:55;11.60;86.00
15690;DHT22;7945;48.816;11.506;2023-03-03T16:21:36;11.50;86.40
15690;DHT22;7945;48.816;11.506;2023-03-03T16:24:17;11.50;86.40
15690;DHT22;7945;48.816;11.506;2023-03-03T16:26:53;11.40;86.60
15690;DHT22;7945;48.816;11.506;2023-03-03T16:29:34;11.30;86.30
15690;DHT22;7945;48.816;11.506;2023-03-03T16:32:09;11.30;86.30
15690;DHT22;7945;48.816;11.506;2023-03-03T16:34:43;11.30;86.40
15690;DHT22;7945;48.816;11.506;2023-03-03T16:37:14;11.30;86.30
15690;DHT22;7945;48.816;11.506;2023-03-03T16:39:52;11.20;86.90
15690;DHT22;7945;48.816;11.506;2023-03-03T16:42:25;11.10;86.70
15690;DHT22;7945;48.816;11.506;2023-03-03T16:45:05;11.10;86.80
15690;DHT22;7945;48.816;11.506;2023-03-03T16:47:43;11.00;87.10
15690;DHT22;7945;48.816;11.506;2023-03-03T16:50:22;11.00;87.60
15690;DHT22;7945;48.816;11.506;2023-03-03T16:52:56;10.90;87.90
15690;DHT22;7945;48.816;11.506;2023-03-03T16:55:29;10.90;88.30
15690;DHT22;7945;48.816;11.506;2023-03-03T16:58:08;10.80;88.50
15690;DHT22;7945;48.816;11.506;2023-03-03T17:00:40;10.80;89.80
15690;DHT22;7945;48.816;11.506;2023-03-03T17:03:33;10.70;89.20
15690;DHT22;7945;48.816;11.506;2023-03-03T17:06:09;10.60;89.60
15690;DHT22;7945;48.816;11.506;2023-03-03T17:11:41;10.50;89.80
15690;DHT22;7945;48.816;11.506;2023-03-03T17:14:22;10.50;89.80
15690;DHT22;7945;48.816;11.506;2023-03-03T17:16:56;10.40;90.00
15690;DHT22;7945;48.816;11.506;2023-03-03T17:19:33;10.30;90.30
15690;DHT22;7945;48.816;11.506;2023-03-03T17:22:13;10.20;90.40
15690;DHT22;7945;48.816;11.506;2023-03-03T17:24:50;10.10;90.70
15690;DHT22;7945;48.816;11.506;2023-03-03T17:27:25;10.10;90.90
15690;DHT22;7945;48.816;11.506;2023-03-03T17:30:02;10.00;91.00
15690;DHT22;7945;48.816;11.506;2023-03-03T17:32:40;9.90;91.20
15690;DHT22;7945;48.816;11.506;2023-03-03T17:35:19;9.90;91.40
15690;DHT22;7945;48.816;11.506;2023-03-03T17:37:54;9.80;91.40
15690;DHT22;7945;48.816;11.506;2023-03-03T17:40:38;9.70;91.40
15690;DHT22;7945;48.816;11.506;2023-03-03T17:43:12;9.60;91.20
15690;DHT22;7945;48.816;11.506;2023-03-03T17:45:43;9.50;91.40